sensor_id;sensor_type;location;lat;lon;timestamp;temperature;humidity
9810;DHT22;4944;52.514;13.192;2024-03-07T00:00:09;7.70;99.90
9810;DHT22;4944;52.514;13.192;2024-03-07T00:02:42;7.70;99.90
9810;DHT22;4944;52.514;13.192;2024-03-07T00:05:11;7.60;99.90
9810;DHT22;4944;52.514;13.192;2024-03-07T00:07:39;7.70;99.90
9810;DHT22;4944;52.514;13.192;2024-03-07T00:10:07;7.70;99.90
9810;DHT22;4944;52.514;13.192;2024-03-07T00:12:35;7.70;99.90
9810;DHT22;4944;52.514;13.192;2024-03-07T00:15:05;7.70;99.90
9810;DHT22;4944;52.514;13.192;2024-03-07T00:17:32;7.70;99.90
9810;DHT22;4944;52.514;13.192;2024-03-07T00:20:00;7.70;99.90
9810;DHT22;4944;52.514;13.192;2024-03-07T00:22:29;7.70;99.90
9810;DHT22;4944;52.514;13.192;2024-03-07T00:24:56;7.70;99.90
9810;DHT22;4944;52.514;13.192;2024-03-07T00:27:23;7.70;99.90
9810;DHT22;4944;52.514;13.192;2024-03-07T00:29:51;7.70;99.90
9810;DHT22;4944;52.514;13.192;2024-03-07T00:32:19;7.70;99.90
9810;DHT22;4944;52.514;13.192;2024-03-07T00:34:47;7.70;99.90
9810;DHT22;4944;52.514;13.192;2024-03-07T00:37:14;7.70;99.90
9810;DHT22;4944;52.514;13.192;2024-03-07T00:39:42;7.70;99.90
9810;DHT22;4944;52.514;13.192;2024-03-07T00:42:09;7.70;99.90
9810;DHT22;4944;52.514;13.192;2024-03-07T00:44:36;7.70;99.90
9810;DHT22;4944;52.514;13.192;2024-03-07T00:47:04;7.70;99.90
9810;DHT22;4944;52.514;13.192;2024-03-07T00:49:31;7.60;99.90
9810;DHT22;4944;52.514;13.192;2024-03-07T00:51:58;7.60;99.90
9810;DHT22;4944;52.514;13.192;2024-03-07T00:54:25;7.60;99.90
9810;DHT22;4944;52.514;13.192;2024-03-07T00:56:53;7.60;99.90
9810;DHT22;4944;52.514;13.192;2024-03-07T00:59:21;7.60;99.90
9810;DHT22;4944;52.514;13.192;2024-03-07T01:01:48;7.60;99.90
9810;DHT22;4944;52.514;13.192;2024-03-07T01:04:15;7.60;99.90
9810;DHT22;4944;52.514;13.192;2024-03-07T01:06:43;7.60;99.90
9810;DHT22;4944;52.514;13.192;2024-03-07T01:09:10;7.60;99.90
9810;DHT22;4944;52.514;13.192;2024-03-07T01:11:40;7.60;99.90
9810;DHT22;4944;52.514;13.192;2024-03-07T01:14:09;7.60;99.90
9810;DHT22;4944;52.514;13.192;2024-03-07T01:16:35;7.60;99.90
9810;DHT22;4944;52.514;13.192;2024-03-07T01:19:03;7.60;99.90
9810;DHT22;4944;52.514;13.192;2024-03-07T01:21:31;7.60;99.90
9810;DHT22;4944;52.514;13.192;2024-03-07T01:23:58;7.60;99.90
9810;DHT22;4944;52.514;13.192;2024-03-07T01:26:26;7.60;99.90
9810;DHT22;4944;52.514;13.192;2024-03-07T01:28:53;7.60;99.90
9810;DHT22;4944;52.514;13.192;2024-03-07T01:31:22;7.60;99.90
9810;DHT22;4944;52.514;13.192;2024-03-07T01:33:49;7.60;99.90
9810;DHT22;4944;52.514;13.192;2024-03-07T01:36:16;7.50;99.90
9810;DHT22;4944;52.514;13.192;2024-03-07T01:38:43;7.50;99.90
9810;DHT22;4944;52.514;13.192;2024-03-07T01:41:10;7.50;99.90
9810;DHT22;4944;52.514;13.192;2024-03-07T01:43:37;7.50;99.90
9810;DHT22;4944;52.514;13.192;2024-03-07T01:46:04;7.40;99.90
9810;DHT22;4944;52.514;13.192;2024-03-07T01:48:32;7.40;99.90
9810;DHT22;4944;52.514;13.192;2024-03-07T01:51:00;7.40;99.90
9810;DHT22;4944;52.514;13.192;2024-03-07T01:53:30;7.40;99.90
9810;DHT22;4944;52.514;13.192;2024-03-07T01:55:59;7.40;99.90
9810;DHT22;4944;52.514;13.192;2024-03-07T01:58:26;7.30;99.90
9810;DHT22;4944;52.514;13.192;2024-03-07T02:00:53;7.30;99.90
9810;DHT22;4944;52.514;13.192;2024-03-07T02:03:20;7.30;99.90
9810;DHT22;4944;52.514;13.192;2024-03-07T02:05:49;7.30;99.90
9810;DHT22;4944;52.514;13.192;2024-03-07T02:08:16;7.30;99.90
9810;DHT22;4944;52.514;13.192;2024-03-07T02:10:43;7.30;99.90
9810;DHT22;4944;52.514;13.192;2024-03-07T02:13:09;7.30;99.90
9810;DHT22;4944;52.514;13.192;2024-03-07T02:15:36;7.20;99.90
9810;DHT22;4944;52.514;13.192;2024-03-07T02:18:03;7.10;99.90
9810;DHT22;4944;52.514;13.192;2024-03-07T02:20:31;7.20;99.90
9810;DHT22;4944;52.514;13.192;2024-03-07T02:22:59;7.20;99.90
9810;DHT22;4944;52.514;13.192;2024-03-07T02:25:26;7.10;99.90
9810;DHT22;4944;52.514;13.192;2024-03-07T02:27:53;7.10;99.90
9810;DHT22;4944;52.514;13.192;2024-03-07T02:30:20;7.10;99.90
9810;DHT22;4944;52.514;13.192;2024-03-07T02:32:47;7.10;99.90
9810;DHT22;4944;52.514;13.192;2024-03-07T02:35:18;7.00;99.90
9810;DHT22;4944;52.514;13.192;2024-03-07T02:37:45;7.10;99.90
9810;DHT22;4944;52.514;13.192;2024-03-07T02:40:14;7.10;99.90
9810;DHT22;4944;52.514;13.192;2024-03-07T02:42:41;7.10;99.90
9810;DHT22;4944;52.514;13.192;2024-03-07T02:45:08;7.10;99.90
9810;DHT22;4944;52.514;13.192;2024-03-07T02:47:40;7.10;99.90
9810;DHT22;4944;52.514;13.192;2024-03-07T02:50:08;7.10;99.90
9810;DHT22;4944;52.514;13.192;2024-03-07T02:52:35;7.00;99.90
9810;DHT22;4944;52.514;13.192;2024-03-07T02:55:02;7.00;99.90
9810;DHT22;4944;52.514;13.192;2024-03-07T02:57:31;7.00;99.90
9810;DHT22;4944;52.514;13.192;2024-03-07T02:59:59;7.00;99.90
9810;DHT22;4944;52.514;13.192;2024-03-07T03:02:26;7.00;99.90
9810;DHT22;4944;52.514;13.192;2024-03-07T03:04:53;7.00;99.90
9810;DHT22;4944;52.514;13.192;2024-03-07T03:07:20;7.00;99.90
9810;DHT22;4944;52.514;13.192;2024-03-07T03:09:47;6.90;99.90
9810;DHT22;4944;52.514;13.192;2024-03-07T03:12:14;7.00;99.90
9810;DHT22;4944;52.514;13.192;2024-03-07T03:14:43;7.00;99.90
9810;DHT22;4944;52.514;13.192;2024-03-07T03:17:10;7.00;99.90
9810;DHT22;4944;52.514;13.192;2024-03-07T03:19:37;7.00;99.90
9810;DHT22;4944;52.514;13.192;2024-03-07T03:22:04;7.00;99.90
9810;DHT22;4944;52.514;13.192;2024-03-07T03:24:31;7.00;99.90
9810;DHT22;4944;52.514;13.192;2024-03-07T03:26:57;7.00;99.90
9810;DHT22;4944;52.514;13.192;2024-03-07T03:29:24;7.00;99.90
9810;DHT22;4944;52.514;13.192;2024-03-07T03:31:55;6.90;99.90
9810;DHT22;4944;52.514;13.192;2024-03-07T03:34:22;7.00;99.90
9810;DHT22;4944;52.514;13.192;2024-03-07T03:36:49;7.00;99.90
9810;DHT22;4944;52.514;13.192;2024-03-07T03:39:15;7.00;99.90
9810;DHT22;4944;52.514;13.192;2024-03-07T03:41:42;7.00;99.90
9810;DHT22;4944;52.514;13.192;2024-03-07T03:44:09;7.00;99.90
9810;DHT22;4944;52.514;13.192;2024-03-07T03:46:37;6.90;99.90
9810;DHT22;4944;52.514;13.192;2024-03-07T03:49:05;6.90;99.90
9810;DHT22;4944;52.514;13.192;2024-03-07T03:51:32;6.90;99.90
9810;DHT22;4944;52.514;13.192;2024-03-07T03:53:59;6.90;99.90
9810;DHT22;4944;52.514;13.192;2024-03-07T03:56:26;6.90;99.90
9810;DHT22;4944;52.514;13.192;2024-03-07T03:58:53;6.90;99.90
9810;DHT22;4944;52.514;13.192;2024-03-07T04:01:20;6.90;99.90
9810;DHT22;4944;52.514;13.192;2024-03-07T04:03:47;6.90;99.90
9810;DHT22;4944;52.514;13.192;2024-03-07T04:06:15;6.90;99.90
9810;DHT22;4944;52.514;13.192;2024-03-07T04:08:42;6.90;99.90
9810;DHT22;4944;52.514;13.192;2024-03-07T04:11:09;6.80;99.90
9810;DHT22;4944;52.514;13.192;2024-03-07T04:13:36;6.80;99.90
9810;DHT22;4944;52.514;13.192;2024-03-07T04:16:04;6.80;99.90
9810;DHT22;4944;52.514;13.192;2024-03-07T04:18:31;6.80;99.90
9810;DHT22;4944;52.514;13.192;2024-03-07T04:20:57;6.90;99.90
9810;DHT22;4944;52.514;13.192;2024-03-07T04:23:26;6.70;99.90
9810;DHT22;4944;52.514;13.192;2024-03-07T04:25:53;6.60;99.90
9810;DHT22;4944;52.514;13.192;2024-03-07T04:28:21;6.60;99.90
9810;DHT22;4944;52.514;13.192;2024-03-07T04:30:48;6.60;99.90
9810;DHT22;4944;52.514;13.192;2024-03-07T04:33:16;6.70;99.90
9810;DHT22;4944;52.514;13.192;2024-03-07T04:35:43;6.70;99.90
9810;DHT22;4944;52.514;13.192;2024-03-07T04:38:10;6.70;99.90
9810;DHT22;4944;52.514;13.192;2024-03-07T04:40:42;6.80;99.90
9810;DHT22;4944;52.514;13.192;2024-03-07T04:43:09;6.70;99.90
9810;DHT22;4944;52.514;13.192;2024-03-07T04:45:36;6.80;99.90
9810;DHT22;4944;52.514;13.192;2024-03-07T04:48:04;6.70;99.90
9810;DHT22;4944;52.514;13.192;2024-03-07T04:50:31;6.60;99.90
9810;DHT22;4944;52.514;13.192;2024-03-07T04:52:58;6.70;99.90
9810;DHT22;4944;52.514;13.192;2024-03-07T04:55:25;6.60;99.90
9810;DHT22;4944;52.514;13.192;2024-03-07T04:57:53;6.60;99.90
9810;DHT22;4944;52.514;13.192;2024-03-07T05:00:20;6.50;99.90
9810;DHT22;4944;52.514;13.192;2024-03-07T05:02:48;6.50;99.90
9810;DHT22;4944;52.514;13.192;2024-03-07T05:05:16;6.50;99.90
9810;DHT22;4944;52.514;13.192;2024-03-07T05:07:48;6.50;99.90
9810;DHT22;4944;52.514;13.192;2024-03-07T05:10:15;6.30;99.90
9810;DHT22;4944;52.514;13.192;2024-03-07T05:12:42;6.20;99.90
9810;DHT22;4944;52.514;13.192;2024-03-07T05:15:11;6.20;99.90
9810;DHT22;4944;52.514;13.192;2024-03-07T05:17:38;6.20;99.90
9810;DHT22;4944;52.514;13.192;2024-03-07T05:20:08;6.10;99.90
9810;DHT22;4944;52.514;13.192;2024-03-07T05:22:35;5.90;99.90
9810;DHT22;4944;52.514;13.192;2024-03-07T05:25:05;5.90;99.90
9810;DHT22;4944;52.514;13.192;2024-03-07T05:27:32;5.90;99.90
9810;DHT22;4944;52.514;13.192;2024-03-07T05:29:59;5.80;99.90
9810;DHT22;4944;52.514;13.192;2024-03-07T05:32:27;5.80;99.90
9810;DHT22;4944;52.514;13.192;2024-03-07T05:34:54;5.70;99.90
9810;DHT22;4944;52.514;13.192;2024-03-07T05:37:21;5.70;99.90
9810;DHT22;4944;52.514;13.192;2024-03-07T05:39:49;5.70;99.90
9810;DHT22;4944;52.514;13.192;2024-03-07T05:42:16;5.80;99.90
9810;DHT22;4944;52.514;13.192;2024-03-07T05:44:43;5.80;99.90
9810;DHT22;4944;52.514;13.192;2024-03-07T05:47:10;5.70;99.90
9810;DHT22;4944;52.514;13.192;2024-03-07T05:49:40;5.80;99.90
9810;DHT22;4944;52.514;13.192;2024-03-07T05:52:07;5.80;99.90
9810;DHT22;4944;52.514;13.192;2024-03-07T05:54:35;5.70;99.90
9810;DHT22;4944;52.514;13.192;2024-03-07T05:57:02;5.70;99.90
9810;DHT22;4944;52.514;13.192;2024-03-07T05:59:32;5.70;99.90
9810;DHT22;4944;52.514;13.192;2024-03-07T06:01:59;5.70;99.90
9810;DHT22;4944;52.514;13.192;2024-03-07T06:04:26;5.80;99.90
9810;DHT22;4944;52.514;13.192;2024-03-07T06:06:54;5.80;99.90
9810;DHT22;4944;52.514;13.192;2024-03-07T06:09:21;5.80;99.90
9810;DHT22;4944;52.514;13.192;2024-03-07T06:11:49;5.80;99.90
9810;DHT22;4944;52.514;13.192;2024-03-07T06:14:16;5.80;99.90
9810;DHT22;4944;52.514;13.192;2024-03-07T06:16:43;5.80;99.90
9810;DHT22;4944;52.514;13.192;2024-03-07T06:19:11;5.80;99.90
9810;DHT22;4944;52.514;13.192;2024-03-07T06:21:39;5.80;99.90
9810;DHT22;4944;52.514;13.192;2024-03-07T06:24:08;5.80;99.90
9810;DHT22;4944;52.514;13.192;2024-03-07T06:26:37;5.80;99.90
9810;DHT22;4944;52.514;13.192;2024-03-07T06:29:13;5.80;99.90
9810;DHT22;4944;52.514;13.192;2024-03-07T06:31:41;5.80;99.90
9810;DHT22;4944;52.514;13.192;2024-03-07T06:34:09;5.70;99.90
9810;DHT22;4944;52.514;13.192;2024-03-07T06:36:36;5.60;99.90
9810;DHT22;4944;52.514;13.192;2024-03-07T06:39:03;5.60;99.90
9810;DHT22;4944;52.514;13.192;2024-03-07T06:41:33;5.60;99.90
9810;DHT22;4944;52.514;13.192;2024-03-07T06:44:00;5.60;99.90
9810;DHT22;4944;52.514;13.192;2024-03-07T06:46:27;5.50;99.90
9810;DHT22;4944;52.514;13.192;2024-03-07T06:48:57;5.50;99.90
9810;DHT22;4944;52.514;13.192;2024-03-07T06:51:24;5.50;99.90
9810;DHT22;4944;52.514;13.192;2024-03-07T06:53:51;5.50;99.90
9810;DHT22;4944;52.514;13.192;2024-03-07T06:56:18;5.50;99.90
9810;DHT22;4944;52.514;13.192;2024-03-07T06:58:46;5.50;99.90
9810;DHT22;4944;52.514;13.192;2024-03-07T07:01:13;5.60;99.90
9810;DHT22;4944;52.514;13.192;2024-03-07T07:03:42;5.60;99.90
9810;DHT22;4944;52.514;13.192;2024-03-07T07:06:10;5.60;99.90
9810;DHT22;4944;52.514;13.192;2024-03-07T07:08:37;5.70;99.90
9810;DHT22;4944;52.514;13.192;2024-03-07T07:11:04;5.70;99.90
9810;DHT22;4944;52.514;13.192;2024-03-07T07:13:31;5.70;99.90
9810;DHT22;4944;52.514;13.192;2024-03-07T07:16:00;5.70;99.90
9810;DHT22;4944;52.514;13.192;2024-03-07T07:18:26;5.70;99.90
9810;DHT22;4944;52.514;13.192;2024-03-07T07:20:53;5.80;99.90
9810;DHT22;4944;52.514;13.192;2024-03-07T07:23:22;5.80;99.90
9810;DHT22;4944;52.514;13.192;2024-03-07T07:25:48;5.80;99.90
9810;DHT22;4944;52.514;13.192;2024-03-07T07:28:15;5.90;99.90
9810;DHT22;4944;52.514;13.192;2024-03-07T07:30:42;6.00;99.90
9810;DHT22;4944;52.514;13.192;2024-03-07T07:33:11;6.00;99.90
9810;DHT22;4944;52.514;13.192;2024-03-07T07:35:39;6.10;99.90
9810;DHT22;4944;52.514;13.192;2024-03-07T07:38:06;6.10;99.90
9810;DHT22;4944;52.514;13.192;2024-03-07T07:40:36;6.20;99.90
9810;DHT22;4944;52.514;13.192;2024-03-07T07:43:03;6.20;99.90
9810;DHT22;4944;52.514;13.192;2024-03-07T07:45:30;6.40;99.90
9810;DHT22;4944;52.514;13.192;2024-03-07T07:47:58;6.50;99.90
9810;DHT22;4944;52.514;13.192;2024-03-07T07:50:26;6.50;99.90
9810;DHT22;4944;52.514;13.192;2024-03-07T07:52:56;6.60;99.90
9810;DHT22;4944;52.514;13.192;2024-03-07T07:55:24;6.70;99.90
9810;DHT22;4944;52.514;13.192;2024-03-07T07:57:53;6.70;99.90
9810;DHT22;4944;52.514;13.192;2024-03-07T08:00:21;6.80;99.90
9810;DHT22;4944;52.514;13.192;2024-03-07T08:02:52;6.70;99.90
9810;DHT22;4944;52.514;13.192;2024-03-07T08:05:19;6.80;99.90
9810;DHT22;4944;52.514;13.192;2024-03-07T08:07:50;6.70;99.90
9810;DHT22;4944;52.514;13.192;2024-03-07T08:10:18;6.80;99.90
9810;DHT22;4944;52.514;13.192;2024-03-07T08:12:46;6.90;99.90
9810;DHT22;4944;52.514;13.192;2024-03-07T08:15:13;6.90;99.90
9810;DHT22;4944;52.514;13.192;2024-03-07T08:17:41;7.00;99.90
9810;DHT22;4944;52.514;13.192;2024-03-07T08:20:14;7.10;99.90
9810;DHT22;4944;52.514;13.192;2024-03-07T08:22:44;7.10;99.90
9810;DHT22;4944;52.514;13.192;2024-03-07T08:25:13;7.20;99.90
9810;DHT22;4944;52.514;13.192;2024-03-07T08:27:42;7.10;99.90
9810;DHT22;4944;52.514;13.192;2024-03-07T08:30:10;7.20;99.90
9810;DHT22;4944;52.514;13.192;2024-03-07T08:32:39;7.30;99.90
9810;DHT22;4944;52.514;13.192;2024-03-07T08:35:07;7.40;99.90
9810;DHT22;4944;52.514;13.192;2024-03-07T08:37:35;7.60;99.90
9810;DHT22;4944;52.514;13.192;2024-03-07T08:40:03;7.60;99.90
9810;DHT22;4944;52.514;13.192;2024-03-07T08:42:33;7.70;99.90
9810;DHT22;4944;52.514;13.192;2024-03-07T08:45:01;7.70;99.90
9810;DHT22;4944;52.514;13.192;2024-03-07T08:47:30;7.70;99.90
9810;DHT22;4944;52.514;13.192;2024-03-07T08:49:57;7.70;99.90
9810;DHT22;4944;52.514;13.192;2024-03-07T08:52:24;7.80;99.90
9810;DHT22;4944;52.514;13.192;2024-03-07T08:54:52;7.90;99.90
9810;DHT22;4944;52.514;13.192;2024-03-07T08:57:20;8.00;99.90
9810;DHT22;4944;52.514;13.192;2024-03-07T08:59:49;8.00;99.90
9810;DHT22;4944;52.514;13.192;2024-03-07T09:02:16;8.10;99.90
9810;DHT22;4944;52.514;13.192;2024-03-07T09:04:43;8.20;99.90
9810;DHT22;4944;52.514;13.192;2024-03-07T09:07:09;8.20;99.90
9810;DHT22;4944;52.514;13.192;2024-03-07T09:09:37;8.30;99.90
9810;DHT22;4944;52.514;13.192;2024-03-07T09:12:05;8.30;99.90
9810;DHT22;4944;52.514;13.192;2024-03-07T09:14:32;8.40;99.90
9810;DHT22;4944;52.514;13.192;2024-03-07T09:17:00;8.40;99.90
9810;DHT22;4944;52.514;13.192;2024-03-07T09:19:27;8.50;99.90
9810;DHT22;4944;52.514;13.192;2024-03-07T09:21:54;8.60;99.90
9810;DHT22;4944;52.514;13.192;2024-03-07T09:24:22;8.60;99.90
9810;DHT22;4944;52.514;13.192;2024-03-07T09:26:49;8.70;99.90
9810;DHT22;4944;52.514;13.192;2024-03-07T09:29:17;8.90;99.90
9810;DHT22;4944;52.514;13.192;2024-03-07T09:31:45;8.90;99.90
9810;DHT22;4944;52.514;13.192;2024-03-07T09:34:13;8.90;99.90
9810;DHT22;4944;52.514;13.192;2024-03-07T09:36:40;9.00;99.90
9810;DHT22;4944;52.514;13.192;2024-03-07T09:39:08;9.00;99.90
9810;DHT22;4944;52.514;13.192;2024-03-07T09:41:35;9.10;99.90
9810;DHT22;4944;52.514;13.192;2024-03-07T09:44:02;9.20;99.90
9810;DHT22;4944;52.514;13.192;2024-03-07T09:46:30;9.30;99.90
9810;DHT22;4944;52.514;13.192;2024-03-07T09:48:58;9.40;99.90
9810;DHT22;4944;52.514;13.192;2024-03-07T09:51:27;9.50;99.90
9810;DHT22;4944;52.514;13.192;2024-03-07T09:53:57;9.70;99.90
9810;DHT22;4944;52.514;13.192;2024-03-07T09:56:27;9.70;99.90
9810;DHT22;4944;52.514;13.192;2024-03-07T09:58:57;9.80;99.90
9810;DHT22;4944;52.514;13.192;2024-03-07T10:01:26;10.00;99.90
9810;DHT22;4944;52.514;13.192;2024-03-07T10:03:58;10.10;99.90
9810;DHT22;4944;52.514;13.192;2024-03-07T10:06:28;10.20;99.90
9810;DHT22;4944;52.514;13.192;2024-03-07T10:08:56;10.00;99.90
9810;DHT22;4944;52.514;13.192;2024-03-07T10:11:24;10.10;99.90
9810;DHT22;4944;52.514;13.192;2024-03-07T10:13:54;9.90;99.90
9810;DHT22;4944;52.514;13.192;2024-03-07T10:16:21;10.00;99.90
9810;DHT22;4944;52.514;13.192;2024-03-07T10:18:48;10.00;99.90
9810;DHT22;4944;52.514;13.192;2024-03-07T10:21:19;10.00;99.90
9810;DHT22;4944;52.514;13.192;2024-03-07T10:23:47;10.20;99.90
9810;DHT22;4944;52.514;13.192;2024-03-07T10:26:15;10.30;99.90
9810;DHT22;4944;52.514;13.192;2024-03-07T10:28:43;10.30;99.90
9810;DHT22;4944;52.514;13.192;2024-03-07T10:31:10;10.30;99.90
9810;DHT22;4944;52.514;13.192;2024-03-07T10:33:41;10.30;99.90
9810;DHT22;4944;52.514;13.192;2024-03-07T10:36:10;10.30;99.90
9810;DHT22;4944;52.514;13.192;2024-03-07T10:38:39;10.30;99.90
9810;DHT22;4944;52.514;13.192;2024-03-07T10:41:08;10.50;99.90
9810;DHT22;4944;52.514;13.192;2024-03-07T10:43:36;10.50;99.90
9810;DHT22;4944;52.514;13.192;2024-03-07T10:46:08;10.60;99.90
9810;DHT22;4944;52.514;13.192;2024-03-07T10:48:39;10.70;99.90
9810;DHT22;4944;52.514;13.192;2024-03-07T10:51:12;10.80;99.90
9810;DHT22;4944;52.514;13.192;2024-03-07T10:53:46;10.90;99.90
9810;DHT22;4944;52.514;13.192;2024-03-07T10:56:26;10.90;99.90
9810;DHT22;4944;52.514;13.192;2024-03-07T10:59:03;11.10;99.90
9810;DHT22;4944;52.514;13.192;2024-03-07T11:01:33;11.30;99.90
9810;DHT22;4944;52.514;13.192;2024-03-07T11:04:03;11.40;99.90
9810;DHT22;4944;52.514;13.192;2024-03-07T11:06:32;11.30;99.70
9810;DHT22;4944;52.514;13.192;2024-03-07T11:09:00;11.20;99.90
9810;DHT22;4944;52.514;13.192;2024-03-07T11:11:31;11.40;99.90
9810;DHT22;4944;52.514;13.192;2024-03-07T11:13:58;11.60;99.50
9810;DHT22;4944;52.514;13.192;2024-03-07T11:16:25;11.70;99.70
9810;DHT22;4944;52.514;13.192;2024-03-07T11:19:18;11.90;99.40
9810;DHT22;4944;52.514;13.192;2024-03-07T11:21:45;12.00;99.00
9810;DHT22;4944;52.514;13.192;2024-03-07T11:24:22;12.00;98.30
9810;DHT22;4944;52.514;13.192;2024-03-07T11:26:52;12.00;98.10
9810;DHT22;4944;52.514;13.192;2024-03-07T11:32:23;12.20;98.20
9810;DHT22;4944;52.514;13.192;2024-03-07T11:34:50;12.20;97.70
9810;DHT22;4944;52.514;13.192;2024-03-07T11:37:36;12.30;97.60
9810;DHT22;4944;52.514;13.192;2024-03-07T11:40:07;12.40;97.70
9810;DHT22;4944;52.514;13.192;2024-03-07T11:42:46;12.50;97.10
9810;DHT22;4944;52.514;13.192;2024-03-07T11:45:14;12.60;96.60
9810;DHT22;4944;52.514;13.192;2024-03-07T11:47:50;12.50;96.50
9810;DHT22;4944;52.514;13.192;2024-03-07T11:50:23;12.40;96.60
9810;DHT22;4944;52.514;13.192;2024-03-07T11:52:51;12.60;96.70
9810;DHT22;4944;52.514;13.192;2024-03-07T11:55:20;12.70;96.30
9810;DHT22;4944;52.514;13.192;2024-03-07T11:57:49;12.80;96.10
9810;DHT22;4944;52.514;13.192;2024-03-07T12:00:18;13.00;96.20
9810;DHT22;4944;52.514;13.192;2024-03-07T12:03:00;13.00;96.30
9810;DHT22;4944;52.514;13.192;2024-03-07T12:05:27;13.10;96.00
9810;DHT22;4944;52.514;13.192;2024-03-07T12:07:56;13.10;95.90
9810;DHT22;4944;52.514;13.192;2024-03-07T12:10:22;13.20;95.50
9810;DHT22;4944;52.514;13.192;2024-03-07T12:12:51;13.20;95.80
9810;DHT22;4944;52.514;13.192;2024-03-07T12:15:18;13.20;95.30
9810;DHT22;4944;52.514;13.192;2024-03-07T12:17:46;13.30;95.80
9810;DHT22;4944;52.514;13.192;2024-03-07T12:20:15;13.40;96.30
9810;DHT22;4944;52.514;13.192;2024-03-07T12:22:56;13.30;95.80
9810;DHT22;4944;52.514;13.192;2024-03-07T12:25:24;13.30;95.80
9810;DHT22;4944;52.514;13.192;2024-03-07T12:28:07;13.40;96.10
9810;DHT22;4944;52.514;13.192;2024-03-07T12:30:49;13.40;95.40
9810;DHT22;4944;52.514;13.192;2024-03-07T12:33:17;13.40;95.70
9810;DHT22;4944;52.514;13.192;2024-03-07T12:35:46;13.60;95.40
9810;DHT22;4944;52.514;13.192;2024-03-07T12:38:15;13.60;95.10
9810;DHT22;4944;52.514;13.192;2024-03-07T12:40:43;13.80;94.90
9810;DHT22;4944;52.514;13.192;2024-03-07T12:43:17;13.70;94.50
9810;DHT22;4944;52.514;13.192;2024-03-07T12:45:47;13.80;94.00
9810;DHT22;4944;52.514;13.192;2024-03-07T12:48:14;13.70;94.10
9810;DHT22;4944;52.514;13.192;2024-03-07T12:50:42;13.90;94.40
9810;DHT22;4944;52.514;13.192;2024-03-07T12:53:12;14.00;93.80
9810;DHT22;4944;52.514;13.192;2024-03-07T12:55:39;14.10;93.90
9810;DHT22;4944;52.514;13.192;2024-03-07T12:58:08;14.10;94.40
9810;DHT22;4944;52.514;13.192;2024-03-07T13:00:38;14.30;93.70
9810;DHT22;4944;52.514;13.192;2024-03-07T13:03:07;14.40;93.40
9810;DHT22;4944;52.514;13.192;2024-03-07T13:05:34;14.50;93.40
9810;DHT22;4944;52.514;13.192;2024-03-07T13:08:01;14.60;93.90
9810;DHT22;4944;52.514;13.192;2024-03-07T13:10:30;14.80;94.20
9810;DHT22;4944;52.514;13.192;2024-03-07T13:12:57;15.00;93.30
9810;DHT22;4944;52.514;13.192;2024-03-07T13:15:24;14.90;92.60
9810;DHT22;4944;52.514;13.192;2024-03-07T13:17:53;14.80;92.50
9810;DHT22;4944;52.514;13.192;2024-03-07T13:20:20;14.70;91.90
9810;DHT22;4944;52.514;13.192;2024-03-07T13:22:52;14.70;91.90
9810;DHT22;4944;52.514;13.192;2024-03-07T13:25:21;14.80;91.90
9810;DHT22;4944;52.514;13.192;2024-03-07T13:27:56;14.80;91.60
9810;DHT22;4944;52.514;13.192;2024-03-07T13:30:25;15.10;92.10
9810;DHT22;4944;52.514;13.192;2024-03-07T13:32:55;14.60;90.90
9810;DHT22;4944;52.514;13.192;2024-03-07T13:35:23;14.60;91.20
9810;DHT22;4944;52.514;13.192;2024-03-07T13:37:52;14.50;91.10
9810;DHT22;4944;52.514;13.192;2024-03-07T13:40:21;14.60;91.20
9810;DHT22;4944;52.514;13.192;2024-03-07T13:42:53;14.80;91.40
9810;DHT22;4944;52.514;13.192;2024-03-07T13:45:21;14.90;91.20
9810;DHT22;4944;52.514;13.192;2024-03-07T13:47:49;14.80;91.40
9810;DHT22;4944;52.514;13.192;2024-03-07T13:50:19;14.90;91.10
9810;DHT22;4944;52.514;13.192;2024-03-07T13:52:48;14.90;90.50
9810;DHT22;4944;52.514;13.192;2024-03-07T13:55:49;14.80;90.10
9810;DHT22;4944;52.514;13.192;2024-03-07T13:58:34;14.80;90.10
9810;DHT22;4944;52.514;13.192;2024-03-07T14:01:20;14.60;90.00
9810;DHT22;4944;52.514;13.192;2024-03-07T14:04:19;14.90;90.30
9810;DHT22;4944;52.514;13.192;2024-03-07T14:07:04;15.00;89.80
9810;DHT22;4944;52.514;13.192;2024-03-07T14:09:58;15.00;89.10
9810;DHT22;4944;52.514;13.192;2024-03-07T14:12:55;14.90;89.20
9810;DHT22;4944;52.514;13.192;2024-03-07T14:16:03;14.90;87.90
9810;DHT22;4944;52.514;13.192;2024-03-07T14:19:14;14.90;88.20
9810;DHT22;4944;52.514;13.192;2024-03-07T14:22:02;14.90;89.00
9810;DHT22;4944;52.514;13.192;2024-03-07T14:24:58;15.20;89.40
9810;DHT22;4944;52.514;13.192;2024-03-07T14:27:34;15.20;89.00
9810;DHT22;4944;52.514;13.192;2024-03-07T14:30:21;15.30;88.70
9810;DHT22;4944;52.514;13.192;2024-03-07T14:32:53;15.10;87.20
9810;DHT22;4944;52.514;13.192;2024-03-07T14:35:31;15.10;86.40
9810;DHT22;4944;52.514;13.192;2024-03-07T14:40:49;15.10;86.30
9810;DHT22;4944;52.514;13.192;2024-03-07T14:43:19;15.20;88.10
9810;DHT22;4944;52.514;13.192;2024-03-07T14:45:47;15.20;87.80
9810;DHT22;4944;52.514;13.192;2024-03-07T14:48:18;15.10;88.20
9810;DHT22;4944;52.514;13.192;2024-03-07T14:50:45;15.10;89.20
9810;DHT22;4944;52.514;13.192;2024-03-07T14:53:14;15.10;89.40
9810;DHT22;4944;52.514;13.192;2024-03-07T14:55:43;15.10;89.30
9810;DHT22;4944;52.514;13.192;2024-03-07T14:58:11;15.00;89.00
9810;DHT22;4944;52.514;13.192;2024-03-07T15:00:40;15.00;88.80
9810;DHT22;4944;52.514;13.192;2024-03-07T15:03:09;15.00;88.10
9810;DHT22;4944;52.514;13.192;2024-03-07T15:05:40;14.70;87.70
9810;DHT22;4944;52.514;13.192;2024-03-07T15:08:07;14.70;88.40
9810;DHT22;4944;52.514;13.192;2024-03-07T15:10:39;14.50;88.00
9810;DHT22;4944;52.514;13.192;2024-03-07T15:13:08;14.40;88.00
9810;DHT22;4944;52.514;13.192;2024-03-07T15:15:38;14.30;86.60
9810;DHT22;4944;52.514;13.192;2024-03-07T15:18:06;14.20;86.50
9810;DHT22;4944;52.514;13.192;2024-03-07T15:20:34;14.20;86.90
9810;DHT22;4944;52.514;13.192;2024-03-07T15:23:02;14.20;87.40
9810;DHT22;4944;52.514;13.192;2024-03-07T15:25:33;14.00;86.70
9810;DHT22;4944;52.514;13.192;2024-03-07T15:28:03;13.80;87.00
9810;DHT22;4944;52.514;13.192;2024-03-07T15:30:31;13.60;86.20
9810;DHT22;4944;52.514;13.192;2024-03-07T15:33:00;13.40;87.00
9810;DHT22;4944;52.514;13.192;2024-03-07T15:35:29;13.30;87.60
9810;DHT22;4944;52.514;13.192;2024-03-07T15:37:57;13.20;87.60
9810;DHT22;4944;52.514;13.192;2024-03-07T15:40:24;12.90;87.70
9810;DHT22;4944;52.514;13.192;2024-03-07T15:42:54;12.90;88.30
9810;DHT22;4944;52.514;13.192;2024-03-07T15:45:24;12.80;88.60
9810;DHT22;4944;52.514;13.192;2024-03-07T15:47:52;12.70;89.00
9810;DHT22;4944;52.514;13.192;2024-03-07T15:50:20;12.60;89.00
9810;DHT22;4944;52.514;13.192;2024-03-07T15:52:48;12.50;89.80
9810;DHT22;4944;52.514;13.192;2024-03-07T15:55:17;12.30;90.20
9810;DHT22;4944;52.514;13.192;2024-03-07T15:57:45;12.20;90.50
9810;DHT22;4944;52.514;13.192;2024-03-07T16:00:15;12.10;90.90
9810;DHT22;4944;52.514;13.192;2024-03-07T16:02:56;12.00;91.00
9810;DHT22;4944;52.514;13.192;2024-03-07T16:05:24;12.00;91.40
9810;DHT22;4944;52.514;13.192;2024-03-07T16:07:52;12.00;91.50
9810;DHT22;4944;52.514;13.192;2024-03-07T16:10:20;12.00;91.50
9810;DHT22;4944;52.514;13.192;2024-03-07T16:12:49;12.00;91.30